Whitfield, Mississippi
Current Conditions -  °F | °C
As of 8:54 PM on Thursday 27 Nov 2014 (Local Time) from KJAN Reporting Station
Clear Clear  
Wind Chill: 37°   Ceiling: Unl
Heat Index: 37°   Visibility: 10mi
Dew Point: 31°   Wind: 3mph
Humidity: 79%   Direction: 350°N
Pressure: 30.47"   Gusts: NA
Location:  32.24°N, 90.07°W
Report Text: KJAN 280254Z 35003KT 10SM CLR 03/M01 A3047 RMK AO2 SLP319 T00281006 53002
Loading
Personal Weather Stations






























Interactive Weather Map New forecast layout! Learn more

10-Day Weather Forecast

Advertisements
Track Severe Weather on mobile